Time;durP1;ratioP1;P1;durP2;ratioP2;P2;SDS_P1;SDS_P2;PMS_P1;PMS_P2;Temp;Humidity;BMP_temperature;BMP_pressure;BME280_temperature;BME280_humidity;BME280_pressure;Samples;Min_cycle;Max_cycle;Signal;HPM_P1;HPM_P2
2022/09/02 08:20:01;;;;;;;;;;;14.80;81.90;;;;;;6116041;23;19949;-67
2022/09/02 08:22:32;;;;;;;;;;;14.90;81.90;;;;;;6121381;23;19909;-68
2022/09/02 08:24:59;;;;;;;;;;;14.90;82.20;;;;;;6096017;23;20348;-68
2022/09/02 08:27:26;;;;;;;;;;;14.90;82.60;;;;;;6121811;23;19905;-68
2022/09/02 08:29:53;;;;;;;;;;;14.90;82.90;;;;;;6122645;23;20268;-68
2022/09/02 08:32:19;;;;;;;;;;;14.90;82.90;;;;;;6122372;23;19905;-68
2022/09/02 08:34:46;;;;;;;;;;;14.80;82.90;;;;;;6120035;23;19912;-68
2022/09/02 08:37:13;;;;;;;;;;;14.80;82.70;;;;;;6121370;23;19909;-67
2022/09/02 08:39:40;;;;;;;;;;;14.80;82.70;;;;;;6121683;23;19929;-67
2022/09/02 08:42:12;;;;;;;;;;;14.80;83.00;;;;;;6121971;23;20186;-68
2022/09/02 08:44:39;;;;;;;;;;;14.80;82.90;;;;;;6121898;23;19913;-68
2022/09/02 08:47:09;;;;;;;;;;;14.80;83.10;;;;;;6096712;23;19908;-68
2022/09/02 08:49:40;;;;;;;;;;;14.80;83.00;;;;;;6096340;23;19917;-68
2022/09/02 08:52:06;;;;;;;;;;;14.80;82.90;;;;;;6096385;23;19987;-68
2022/09/02 08:54:48;;;;;;;;;;;14.80;82.60;;;;;;6096547;23;20359;-68
2022/09/02 08:57:14;;;;;;;;;;;14.80;82.40;;;;;;6096014;23;19909;-68
2022/09/02 08:59:42;;;;;;;;;;;14.80;82.00;;;;;;6122492;23;19924;-64
2022/09/02 09:02:16;;;;;;;;;;;14.90;81.70;;;;;;6120628;23;19956;-65
2022/09/02 09:04:53;;;;;;;;;;;15.00;81.30;;;;;;6096381;23;19912;-65
2022/09/02 09:07:24;;;;;;;;;;;15.00;79.90;;;;;;6096088;23;19988;-66
2022/09/02 09:10:16;;;;;;;;;;;15.00;80.00;;;;;;6121903;23;19926;-67
2022/09/02 09:12:53;;;;;;;;;;;15.00;80.80;;;;;;6117531;23;19913;-67
2022/09/02 09:15:32;;;;;;;;;;;15.00;81.30;;;;;;6122543;23;19916;-67
2022/09/02 09:18:01;;;;;;;;;;;15.00;81.50;;;;;;6122740;23;19920;-67
2022/09/02 12:39:22;;;;;;;;;;;15.00;70.50;;;;;;6121058;23;19952;-68
2022/09/02 12:42:10;;;;;;;;;;;15.00;70.30;;;;;;6122112;23;19991;-68
2022/09/02 12:44:42;;;;;;;;;;;15.00;70.80;;;;;;6121748;23;20288;-68
2022/09/02 12:47:15;;;;;;;;;;;15.00;70.60;;;;;;6122343;23;19964;-68
2022/09/02 12:50:02;;;;;;;;;;;15.00;70.80;;;;;;6122028;23;19913;-67
2022/09/02 12:52:35;;;;;;;;;;;15.00;70.40;;;;;;6096519;23;19909;-69
2022/09/02 12:55:04;;;;;;;;;;;14.90;69.30;;;;;;6122624;23;19909;-68
2022/09/02 12:57:41;;;;;;;;;;;15.00;68.30;;;;;;6121813;23;19956;-69
2022/09/02 13:00:08;;;;;;;;;;;14.90;68.30;;;;;;6125037;23;20235;-67
2022/09/02 13:02:41;;;;;;;;;;;14.90;67.40;;;;;;6100113;23;20288;-67
2022/09/02 13:05:14;;;;;;;;;;;14.90;67.70;;;;;;6125427;23;20296;-69
2022/09/02 13:07:41;;;;;;;;;;;14.90;67.60;;;;;;6100219;23;19905;-67
2022/09/02 13:10:20;;;;;;;;;;;14.90;67.80;;;;;;6126056;23;19936;-69
2022/09/02 13:12:46;;;;;;;;;;;14.90;68.40;;;;;;6125836;23;19905;-67
2022/09/02 13:15:19;;;;;;;;;;;14.80;67.60;;;;;;6125358;23;19920;-67
2022/09/02 13:17:51;;;;;;;;;;;14.80;67.60;;;;;;6125010;23;19912;-68
2022/09/02 13:20:25;;;;;;;;;;;14.80;67.20;;;;;;6125717;23;19936;-68
2022/09/02 13:23:01;;;;;;;;;;;14.80;67.50;;;;;;6125153;23;20015;-67
2022/09/02 13:25:41;;;;;;;;;;;14.90;67.90;;;;;;6125625;23;20328;-67
2022/09/02 13:28:12;;;;;;;;;;;14.90;68.50;;;;;;6099803;23;19969;-67
2022/09/02 13:30:38;;;;;;;;;;;14.80;69.40;;;;;;6099798;23;19905;-67
2022/09/02 13:33:06;;;;;;;;;;;14.80;69.70;;;;;;6125797;23;19905;-68
2022/09/02 13:35:33;;;;;;;;;;;14.80;69.70;;;;;;6125459;23;19904;-68
2022/09/02 13:38:00;;;;;;;;;;;14.80;70.30;;;;;;6099862;23;20333;-67
2022/09/02 13:40:34;;;;;;;;;;;14.80;69.30;;;;;;6100101;23;19905;-68
2022/09/02 13:43:01;;;;;;;;;;;14.80;69.80;;;;;;6100322;23;19909;-67
2022/09/02 13:45:29;;;;;;;;;;;14.80;70.00;;;;;;6098835;23;19913;-68
2022/09/02 13:47:56;;;;;;;;;;;14.80;69.40;;;;;;6099522;23;19955;-68
2022/09/02 13:50:26;;;;;;;;;;;14.80;69.70;;;;;;6124939;23;19912;-67
2022/09/02 13:52:57;;;;;;;;;;;14.80;69.70;;;;;;6125326;23;19905;-67
2022/09/02 13:55:24;;;;;;;;;;;14.80;69.80;;;;;;6113250;23;20283;-67
2022/09/02 13:58:09;;;;;;;;;;;14.80;70.20;;;;;;6125613;23;19936;-68
2022/09/02 14:00:37;;;;;;;;;;;14.70;68.90;;;;;;6099376;23;19915;-67
2022/09/02 14:03:06;;;;;;;;;;;14.70;68.60;;;;;;6125550;23;19905;-68
2022/09/02 14:05:34;;;;;;;;;;;14.70;67.40;;;;;;6125121;23;19905;-68
2022/09/02 14:08:02;;;;;;;;;;;14.70;67.20;;;;;;6100079;23;19916;-67
2022/09/02 14:10:30;;;;;;;;;;;14.70;66.50;;;;;;6099429;23;19905;-68
2022/09/02 14:12:57;;;;;;;;;;;14.70;66.80;;;;;;6125700;23;19915;-67
2022/09/02 14:15:27;;;;;;;;;;;14.70;67.80;;;;;;6124870;23;20236;-68
2022/09/02 14:18:07;;;;;;;;;;;14.70;67.30;;;;;;6125266;23;19909;-67
2022/09/02 14:20:33;;;;;;;;;;;14.70;67.70;;;;;;6125183;23;19991;-68
2022/09/02 14:23:00;;;;;;;;;;;14.60;67.80;;;;;;6125007;23;20236;-67
2022/09/02 14:25:28;;;;;;;;;;;14.70;68.30;;;;;;6099690;23;19909;-68
2022/09/02 14:27:56;;;;;;;;;;;14.60;68.10;;;;;;6124870;23;19913;-67
2022/09/02 14:30:35;;;;;;;;;;;14.60;68.40;;;;;;6125633;23;19920;-68
2022/09/02 14:33:20;;;;;;;;;;;14.60;68.60;;;;;;6125438;23;19957;-68
2022/09/02 14:36:02;;;;;;;;;;;14.60;68.20;;;;;;6125473;23;20236;-68
2022/09/02 14:38:30;;;;;;;;;;;14.50;68.60;;;;;;6124634;23;19964;-68
2022/09/02 14:41:00;;;;;;;;;;;14.50;68.00;;;;;;6099800;23;19916;-67
2022/09/02 14:43:27;;;;;;;;;;;14.50;67.40;;;;;;6127398;23;19909;-69
2022/09/02 15:33:14;;;;;;;;;;;14.30;68.30;;;;;;6121351;23;19928;-68
2022/09/02 15:35:40;;;;;;;;;;;14.30;69.00;;;;;;6126605;23;19945;-68
2022/09/02 15:38:07;;;;;;;;;;;14.30;69.50;;;;;;6126965;23;19912;-67
2022/09/02 15:40:34;;;;;;;;;;;14.30;69.50;;;;;;6126541;23;19931;-68
2022/09/02 15:43:00;;;;;;;;;;;14.30;68.60;;;;;;6126645;23;19979;-68
2022/09/02 15:45:27;;;;;;;;;;;14.30;68.70;;;;;;6126438;23;19913;-67
2022/09/02 15:47:56;;;;;;;;;;;14.40;68.00;;;;;;6126517;23;19987;-67
2022/09/02 15:50:22;;;;;;;;;;;14.40;67.40;;;;;;6125747;23;19960;-68
2022/09/02 15:52:49;;;;;;;;;;;14.30;67.80;;;;;;6125914;23;19905;-68
2022/09/02 15:55:16;;;;;;;;;;;14.30;68.50;;;;;;6126098;23;19951;-68
2022/09/02 15:57:43;;;;;;;;;;;14.40;69.40;;;;;;6126171;23;19905;-68
2022/09/02 16:00:09;;;;;;;;;;;14.30;68.90;;;;;;6126541;23;19928;-68
2022/09/02 16:02:36;;;;;;;;;;;14.30;69.00;;;;;;6126148;23;19905;-67
2022/09/02 16:05:03;;;;;;;;;;;14.30;69.00;;;;;;6125459;23;19909;-68
2022/09/02 16:07:29;;;;;;;;;;;14.40;69.20;;;;;;6125752;23;19913;-69
2022/09/02 16:09:56;;;;;;;;;;;14.30;68.50;;;;;;6126400;23;19909;-68
2022/09/02 16:12:24;;;;;;;;;;;14.30;67.70;;;;;;6126513;23;20291;-68
2022/09/02 16:14:50;;;;;;;;;;;14.30;67.70;;;;;;6126883;23;19984;-68
2022/09/02 16:17:17;;;;;;;;;;;14.30;68.00;;;;;;6126107;23;19916;-68
2022/09/02 16:19:44;;;;;;;;;;;14.30;67.80;;;;;;6126007;23;20280;-68
2022/09/02 16:22:11;;;;;;;;;;;14.40;67.20;;;;;;6126256;23;19905;-68
2022/09/02 16:24:37;;;;;;;;;;;14.30;67.80;;;;;;6126257;23;19912;-68
2022/09/02 16:27:04;;;;;;;;;;;14.30;68.30;;;;;;6126015;23;19904;-68
2022/09/02 16:29:31;;;;;;;;;;;14.30;68.60;;;;;;6125998;23;19912;-68
2022/09/02 16:31:58;;;;;;;;;;;14.30;67.90;;;;;;6126985;23;19933;-68
2022/09/02 16:34:25;;;;;;;;;;;14.30;67.40;;;;;;6125751;23;20260;-67
2022/09/02 16:36:52;;;;;;;;;;;14.30;68.30;;;;;;6126278;23;19909;-68
2022/09/02 16:39:19;;;;;;;;;;;14.30;67.10;;;;;;6126136;23;19905;-68
2022/09/02 16:41:47;;;;;;;;;;;14.30;67.60;;;;;;6099934;23;19987;-68
2022/09/02 16:44:14;;;;;;;;;;;14.30;67.60;;;;;;6125630;23;19905;-68
2022/09/02 16:46:41;;;;;;;;;;;14.30;67.10;;;;;;6126170;23;19905;-68
2022/09/02 16:49:08;;;;;;;;;;;14.30;66.60;;;;;;6126177;23;19920;-68
2022/09/02 16:51:35;;;;;;;;;;;14.20;67.10;;;;;;6125920;23;19912;-67
2022/09/02 16:54:02;;;;;;;;;;;14.20;67.90;;;;;;6125906;23;20308;-67
2022/09/02 16:56:29;;;;;;;;;;;14.20;69.00;;;;;;6100002;23;19928;-67
2022/09/02 16:58:56;;;;;;;;;;;14.20;69.50;;;;;;6126334;23;19909;-67
2022/09/02 17:01:22;;;;;;;;;;;14.10;70.10;;;;;;6125601;23;19913;-68
2022/09/02 17:03:49;;;;;;;;;;;14.00;70.60;;;;;;6126095;23;19960;-68
2022/09/02 17:06:16;;;;;;;;;;;14.00;71.10;;;;;;6125986;23;19912;-67
2022/09/02 17:08:42;;;;;;;;;;;13.90;71.00;;;;;;6125847;23;19921;-67
2022/09/02 17:11:10;;;;;;;;;;;13.80;71.30;;;;;;6126001;23;19905;-67
2022/09/02 17:13:37;;;;;;;;;;;13.80;71.30;;;;;;6125915;23;20339;-68
2022/09/02 17:16:03;;;;;;;;;;;13.70;71.50;;;;;;6126313;23;19995;-68
2022/09/02 17:18:30;;;;;;;;;;;13.70;71.70;;;;;;6125905;23;19909;-68
2022/09/02 17:21:15;;;;;;;;;;;13.70;71.70;;;;;;6126259;23;19975;-67
2022/09/02 17:23:42;;;;;;;;;;;13.70;71.90;;;;;;6125855;23;19904;-68
2022/09/02 17:26:08;;;;;;;;;;;13.70;71.90;;;;;;6126144;23;19909;-68
2022/09/02 17:28:46;;;;;;;;;;;13.70;71.30;;;;;;6125950;23;19924;-67
